sensor_id;sensor_type;location;lat;lon;timestamp;temperature;humidity
14727;DHT22;7454;51.256;8.176;2023-04-29T00:00:41;12.20;84.00
14727;DHT22;7454;51.256;8.176;2023-04-29T00:03:07;12.20;84.00
14727;DHT22;7454;51.256;8.176;2023-04-29T00:05:33;12.20;84.30
14727;DHT22;7454;51.256;8.176;2023-04-29T00:07:59;12.20;84.70
14727;DHT22;7454;51.256;8.176;2023-04-29T00:10:24;12.10;85.00
14727;DHT22;7454;51.256;8.176;2023-04-29T00:12:50;12.10;85.60
14727;DHT22;7454;51.256;8.176;2023-04-29T00:15:16;12.10;84.40
14727;DHT22;7454;51.256;8.176;2023-04-29T00:17:42;12.00;82.90
14727;DHT22;7454;51.256;8.176;2023-04-29T00:20:07;11.90;83.10
14727;DHT22;7454;51.256;8.176;2023-04-29T00:22:34;11.80;82.80
14727;DHT22;7454;51.256;8.176;2023-04-29T00:25:00;11.80;83.30
14727;DHT22;7454;51.256;8.176;2023-04-29T00:27:25;11.70;82.40
14727;DHT22;7454;51.256;8.176;2023-04-29T00:29:51;11.70;83.20
14727;DHT22;7454;51.256;8.176;2023-04-29T00:32:17;11.60;83.20
14727;DHT22;7454;51.256;8.176;2023-04-29T00:34:43;11.60;83.40
14727;DHT22;7454;51.256;8.176;2023-04-29T00:37:08;11.50;84.00
14727;DHT22;7454;51.256;8.176;2023-04-29T00:39:34;11.50;83.60
14727;DHT22;7454;51.256;8.176;2023-04-29T00:42:00;11.50;83.70
14727;DHT22;7454;51.256;8.176;2023-04-29T00:44:27;11.50;84.40
14727;DHT22;7454;51.256;8.176;2023-04-29T00:46:53;11.50;84.00
14727;DHT22;7454;51.256;8.176;2023-04-29T00:49:19;11.50;84.90
14727;DHT22;7454;51.256;8.176;2023-04-29T00:51:45;11.40;84.60
14727;DHT22;7454;51.256;8.176;2023-04-29T00:54:11;11.40;84.80
14727;DHT22;7454;51.256;8.176;2023-04-29T00:56:37;11.40;83.90
14727;DHT22;7454;51.256;8.176;2023-04-29T00:59:05;11.40;84.10
14727;DHT22;7454;51.256;8.176;2023-04-29T01:01:33;11.40;83.40
14727;DHT22;7454;51.256;8.176;2023-04-29T01:04:00;11.40;83.50
14727;DHT22;7454;51.256;8.176;2023-04-29T01:14:31;11.30;83.10
14727;DHT22;7454;51.256;8.176;2023-04-29T01:16:59;11.30;83.10
14727;DHT22;7454;51.256;8.176;2023-04-29T01:22:18;11.20;82.80
14727;DHT22;7454;51.256;8.176;2023-04-29T01:24:46;11.20;82.60
14727;DHT22;7454;51.256;8.176;2023-04-29T01:27:29;11.20;82.90
14727;DHT22;7454;51.256;8.176;2023-04-29T01:30:08;11.20;83.20
14727;DHT22;7454;51.256;8.176;2023-04-29T01:38:16;11.10;83.30
14727;DHT22;7454;51.256;8.176;2023-04-29T01:40:58;11.00;83.40
14727;DHT22;7454;51.256;8.176;2023-04-29T01:43:34;11.00;82.80
14727;DHT22;7454;51.256;8.176;2023-04-29T01:46:09;11.00;82.90
14727;DHT22;7454;51.256;8.176;2023-04-29T01:48:36;11.00;83.60
14727;DHT22;7454;51.256;8.176;2023-04-29T01:51:02;10.90;82.30
14727;DHT22;7454;51.256;8.176;2023-04-29T01:53:28;10.80;82.20
14727;DHT22;7454;51.256;8.176;2023-04-29T01:55:54;10.90;82.00
14727;DHT22;7454;51.256;8.176;2023-04-29T01:58:26;10.90;82.40
14727;DHT22;7454;51.256;8.176;2023-04-29T02:00:52;10.80;82.10
14727;DHT22;7454;51.256;8.176;2023-04-29T02:03:19;10.80;82.20
14727;DHT22;7454;51.256;8.176;2023-04-29T02:05:49;10.80;82.00
14727;DHT22;7454;51.256;8.176;2023-04-29T02:08:15;10.70;82.00
14727;DHT22;7454;51.256;8.176;2023-04-29T02:10:50;10.70;81.80
14727;DHT22;7454;51.256;8.176;2023-04-29T02:13:27;10.70;81.60
14727;DHT22;7454;51.256;8.176;2023-04-29T02:15:53;10.70;81.80
14727;DHT22;7454;51.256;8.176;2023-04-29T02:18:18;10.70;81.70
14727;DHT22;7454;51.256;8.176;2023-04-29T02:20:46;10.70;81.90
14727;DHT22;7454;51.256;8.176;2023-04-29T02:23:14;10.70;81.80
14727;DHT22;7454;51.256;8.176;2023-04-29T02:25:39;10.70;81.90
14727;DHT22;7454;51.256;8.176;2023-04-29T02:28:05;10.70;82.00
14727;DHT22;7454;51.256;8.176;2023-04-29T02:30:31;10.70;81.80
14727;DHT22;7454;51.256;8.176;2023-04-29T02:32:56;10.70;81.90
14727;DHT22;7454;51.256;8.176;2023-04-29T02:35:22;10.80;81.90
14727;DHT22;7454;51.256;8.176;2023-04-29T02:37:48;10.70;82.00
14727;DHT22;7454;51.256;8.176;2023-04-29T02:40:13;10.70;82.00
14727;DHT22;7454;51.256;8.176;2023-04-29T02:42:39;10.70;82.00
14727;DHT22;7454;51.256;8.176;2023-04-29T02:45:05;10.70;81.90
14727;DHT22;7454;51.256;8.176;2023-04-29T02:47:31;10.70;82.10
14727;DHT22;7454;51.256;8.176;2023-04-29T02:49:56;10.70;82.00
14727;DHT22;7454;51.256;8.176;2023-04-29T02:52:22;10.70;81.80
14727;DHT22;7454;51.256;8.176;2023-04-29T02:54:48;10.70;82.10
14727;DHT22;7454;51.256;8.176;2023-04-29T02:57:13;10.70;81.90
14727;DHT22;7454;51.256;8.176;2023-04-29T02:59:39;10.70;81.70
14727;DHT22;7454;51.256;8.176;2023-04-29T03:02:05;10.70;81.60
14727;DHT22;7454;51.256;8.176;2023-04-29T03:04:30;10.70;81.30
14727;DHT22;7454;51.256;8.176;2023-04-29T03:06:56;10.70;81.30
14727;DHT22;7454;51.256;8.176;2023-04-29T03:09:24;10.70;81.40
14727;DHT22;7454;51.256;8.176;2023-04-29T03:11:49;10.70;81.80
14727;DHT22;7454;51.256;8.176;2023-04-29T03:14:15;10.70;81.90
14727;DHT22;7454;51.256;8.176;2023-04-29T03:16:41;10.60;81.30
14727;DHT22;7454;51.256;8.176;2023-04-29T03:19:07;10.60;81.40
14727;DHT22;7454;51.256;8.176;2023-04-29T03:21:33;10.60;81.60
14727;DHT22;7454;51.256;8.176;2023-04-29T03:23:58;10.60;81.80
14727;DHT22;7454;51.256;8.176;2023-04-29T03:26:31;10.60;82.00
14727;DHT22;7454;51.256;8.176;2023-04-29T03:28:56;10.70;82.10
14727;DHT22;7454;51.256;8.176;2023-04-29T03:31:24;10.70;82.00
14727;DHT22;7454;51.256;8.176;2023-04-29T03:33:51;10.60;82.00
14727;DHT22;7454;51.256;8.176;2023-04-29T03:36:18;10.70;82.10
14727;DHT22;7454;51.256;8.176;2023-04-29T03:39:10;10.60;81.90
14727;DHT22;7454;51.256;8.176;2023-04-29T03:41:36;10.60;81.60
14727;DHT22;7454;51.256;8.176;2023-04-29T03:44:02;10.50;81.40
14727;DHT22;7454;51.256;8.176;2023-04-29T03:46:29;10.50;81.40
14727;DHT22;7454;51.256;8.176;2023-04-29T03:48:54;10.50;81.50
14727;DHT22;7454;51.256;8.176;2023-04-29T03:51:22;10.50;81.60
14727;DHT22;7454;51.256;8.176;2023-04-29T03:53:50;10.50;81.30
14727;DHT22;7454;51.256;8.176;2023-04-29T03:56:17;10.50;81.40
14727;DHT22;7454;51.256;8.176;2023-04-29T03:58:42;10.50;81.20
14727;DHT22;7454;51.256;8.176;2023-04-29T04:01:09;10.50;81.00
14727;DHT22;7454;51.256;8.176;2023-04-29T04:03:41;10.50;81.30
14727;DHT22;7454;51.256;8.176;2023-04-29T04:06:08;10.40;81.40
14727;DHT22;7454;51.256;8.176;2023-04-29T04:08:34;10.40;81.40
14727;DHT22;7454;51.256;8.176;2023-04-29T04:11:06;10.40;81.30
14727;DHT22;7454;51.256;8.176;2023-04-29T04:13:35;10.40;81.30
14727;DHT22;7454;51.256;8.176;2023-04-29T04:16:02;10.40;81.20
14727;DHT22;7454;51.256;8.176;2023-04-29T04:18:29;10.40;81.30
14727;DHT22;7454;51.256;8.176;2023-04-29T04:20:55;10.30;81.40
14727;DHT22;7454;51.256;8.176;2023-04-29T04:23:23;10.20;81.50
14727;DHT22;7454;51.256;8.176;2023-04-29T04:25:49;10.20;82.00
14727;DHT22;7454;51.256;8.176;2023-04-29T04:28:49;10.20;81.70
14727;DHT22;7454;51.256;8.176;2023-04-29T04:31:22;10.20;82.00
14727;DHT22;7454;51.256;8.176;2023-04-29T04:33:49;10.20;81.80
14727;DHT22;7454;51.256;8.176;2023-04-29T04:36:15;10.20;81.60
14727;DHT22;7454;51.256;8.176;2023-04-29T04:38:41;10.20;81.90
14727;DHT22;7454;51.256;8.176;2023-04-29T04:41:10;10.10;81.60
14727;DHT22;7454;51.256;8.176;2023-04-29T04:43:37;10.10;81.70
14727;DHT22;7454;51.256;8.176;2023-04-29T04:46:10;10.10;81.60
14727;DHT22;7454;51.256;8.176;2023-04-29T04:49:00;10.10;81.50
14727;DHT22;7454;51.256;8.176;2023-04-29T04:51:27;10.00;81.50
14727;DHT22;7454;51.256;8.176;2023-04-29T04:53:53;10.10;81.30
14727;DHT22;7454;51.256;8.176;2023-04-29T04:56:21;10.10;81.50
14727;DHT22;7454;51.256;8.176;2023-04-29T04:58:48;10.10;81.50
14727;DHT22;7454;51.256;8.176;2023-04-29T05:01:13;10.00;81.40
14727;DHT22;7454;51.256;8.176;2023-04-29T05:03:39;9.90;81.30
14727;DHT22;7454;51.256;8.176;2023-04-29T05:06:05;10.00;81.60
14727;DHT22;7454;51.256;8.176;2023-04-29T05:08:31;10.00;81.60
14727;DHT22;7454;51.256;8.176;2023-04-29T05:10:58;10.00;81.20
14727;DHT22;7454;51.256;8.176;2023-04-29T05:13:24;9.90;81.40
14727;DHT22;7454;51.256;8.176;2023-04-29T05:15:50;9.90;81.70
14727;DHT22;7454;51.256;8.176;2023-04-29T05:18:20;9.90;81.60
14727;DHT22;7454;51.256;8.176;2023-04-29T05:20:48;9.90;81.70
14727;DHT22;7454;51.256;8.176;2023-04-29T05:23:14;9.90;81.80
14727;DHT22;7454;51.256;8.176;2023-04-29T05:25:41;9.90;81.70
14727;DHT22;7454;51.256;8.176;2023-04-29T05:28:07;9.90;82.10
14727;DHT22;7454;51.256;8.176;2023-04-29T05:30:35;9.90;81.60
14727;DHT22;7454;51.256;8.176;2023-04-29T05:33:02;9.90;81.80
14727;DHT22;7454;51.256;8.176;2023-04-29T05:35:27;9.90;81.90
14727;DHT22;7454;51.256;8.176;2023-04-29T05:37:53;9.90;81.90
14727;DHT22;7454;51.256;8.176;2023-04-29T05:40:36;9.90;82.00
14727;DHT22;7454;51.256;8.176;2023-04-29T05:43:25;9.80;81.30
14727;DHT22;7454;51.256;8.176;2023-04-29T05:45:52;9.90;81.60
14727;DHT22;7454;51.256;8.176;2023-04-29T05:48:18;9.90;81.40
14727;DHT22;7454;51.256;8.176;2023-04-29T05:50:43;9.90;81.40
14727;DHT22;7454;51.256;8.176;2023-04-29T05:53:10;9.80;81.60
14727;DHT22;7454;51.256;8.176;2023-04-29T05:55:36;9.80;81.30
14727;DHT22;7454;51.256;8.176;2023-04-29T05:58:01;9.90;81.30
14727;DHT22;7454;51.256;8.176;2023-04-29T06:00:27;9.90;81.30
14727;DHT22;7454;51.256;8.176;2023-04-29T06:02:59;9.90;81.30
14727;DHT22;7454;51.256;8.176;2023-04-29T06:05:26;9.90;81.50
14727;DHT22;7454;51.256;8.176;2023-04-29T06:08:12;9.90;81.50
14727;DHT22;7454;51.256;8.176;2023-04-29T06:10:43;10.00;81.50
14727;DHT22;7454;51.256;8.176;2023-04-29T06:13:10;10.00;81.50
14727;DHT22;7454;51.256;8.176;2023-04-29T06:15:36;10.00;81.60
14727;DHT22;7454;51.256;8.176;2023-04-29T06:18:02;10.00;81.30
14727;DHT22;7454;51.256;8.176;2023-04-29T06:20:28;10.10;81.50
14727;DHT22;7454;51.256;8.176;2023-04-29T06:22:53;10.10;81.40
14727;DHT22;7454;51.256;8.176;2023-04-29T06:25:19;10.10;81.00
14727;DHT22;7454;51.256;8.176;2023-04-29T06:27:46;10.00;81.00
14727;DHT22;7454;51.256;8.176;2023-04-29T06:30:14;10.00;81.20
14727;DHT22;7454;51.256;8.176;2023-04-29T06:32:40;9.90;81.20
14727;DHT22;7454;51.256;8.176;2023-04-29T06:35:06;9.90;81.20
14727;DHT22;7454;51.256;8.176;2023-04-29T06:37:52;9.90;81.80
14727;DHT22;7454;51.256;8.176;2023-04-29T06:40:42;9.90;81.70
14727;DHT22;7454;51.256;8.176;2023-04-29T06:43:33;9.90;81.70
14727;DHT22;7454;51.256;8.176;2023-04-29T06:46:14;9.70;81.70
14727;DHT22;7454;51.256;8.176;2023-04-29T06:48:53;9.80;81.40
14727;DHT22;7454;51.256;8.176;2023-04-29T06:51:19;9.70;81.10
14727;DHT22;7454;51.256;8.176;2023-04-29T06:53:45;9.80;81.30
14727;DHT22;7454;51.256;8.176;2023-04-29T06:56:11;9.80;81.30
14727;DHT22;7454;51.256;8.176;2023-04-29T06:58:37;9.70;81.10
14727;DHT22;7454;51.256;8.176;2023-04-29T07:01:02;9.70;81.50
14727;DHT22;7454;51.256;8.176;2023-04-29T07:03:29;9.70;81.20
14727;DHT22;7454;51.256;8.176;2023-04-29T07:05:55;9.70;81.00
14727;DHT22;7454;51.256;8.176;2023-04-29T07:08:22;9.60;81.10
14727;DHT22;7454;51.256;8.176;2023-04-29T07:10:54;9.60;81.30
14727;DHT22;7454;51.256;8.176;2023-04-29T07:13:22;9.60;81.40
14727;DHT22;7454;51.256;8.176;2023-04-29T07:15:49;9.70;81.40
14727;DHT22;7454;51.256;8.176;2023-04-29T07:18:15;9.70;81.30
14727;DHT22;7454;51.256;8.176;2023-04-29T07:20:41;9.70;81.00
14727;DHT22;7454;51.256;8.176;2023-04-29T07:23:07;9.70;81.20
14727;DHT22;7454;51.256;8.176;2023-04-29T07:25:33;9.70;81.10
14727;DHT22;7454;51.256;8.176;2023-04-29T07:27:59;9.80;81.20
14727;DHT22;7454;51.256;8.176;2023-04-29T07:30:25;9.80;81.40
14727;DHT22;7454;51.256;8.176;2023-04-29T07:32:50;9.80;81.00
14727;DHT22;7454;51.256;8.176;2023-04-29T07:35:17;9.90;80.80
14727;DHT22;7454;51.256;8.176;2023-04-29T07:37:43;9.90;81.00
14727;DHT22;7454;51.256;8.176;2023-04-29T07:40:10;9.90;80.90
14727;DHT22;7454;51.256;8.176;2023-04-29T07:42:37;9.90;80.90
14727;DHT22;7454;51.256;8.176;2023-04-29T07:45:05;9.90;81.20
14727;DHT22;7454;51.256;8.176;2023-04-29T07:47:32;9.80;81.00
14727;DHT22;7454;51.256;8.176;2023-04-29T07:49:57;9.80;81.40
14727;DHT22;7454;51.256;8.176;2023-04-29T07:52:23;9.90;81.80
14727;DHT22;7454;51.256;8.176;2023-04-29T07:54:49;9.90;81.60
14727;DHT22;7454;51.256;8.176;2023-04-29T07:57:14;9.90;81.80
14727;DHT22;7454;51.256;8.176;2023-04-29T07:59:40;9.90;81.10
14727;DHT22;7454;51.256;8.176;2023-04-29T08:02:07;10.00;81.60
14727;DHT22;7454;51.256;8.176;2023-04-29T08:04:32;10.00;81.60
14727;DHT22;7454;51.256;8.176;2023-04-29T08:07:05;10.00;81.50
14727;DHT22;7454;51.256;8.176;2023-04-29T08:09:31;10.00;81.80
14727;DHT22;7454;51.256;8.176;2023-04-29T08:11:57;10.10;81.20
14727;DHT22;7454;51.256;8.176;2023-04-29T08:14:22;10.10;81.70
14727;DHT22;7454;51.256;8.176;2023-04-29T08:16:48;10.10;81.70
14727;DHT22;7454;51.256;8.176;2023-04-29T08:19:13;10.10;81.50
14727;DHT22;7454;51.256;8.176;2023-04-29T08:21:39;10.10;81.50
14727;DHT22;7454;51.256;8.176;2023-04-29T08:24:05;10.20;81.90
14727;DHT22;7454;51.256;8.176;2023-04-29T08:26:31;10.10;81.40
14727;DHT22;7454;51.256;8.176;2023-04-29T08:28:57;10.20;81.80
14727;DHT22;7454;51.256;8.176;2023-04-29T08:31:22;10.20;81.20
14727;DHT22;7454;51.256;8.176;2023-04-29T08:33:48;10.20;81.30
14727;DHT22;7454;51.256;8.176;2023-04-29T08:36:13;10.20;81.00
14727;DHT22;7454;51.256;8.176;2023-04-29T08:38:39;10.20;81.70
14727;DHT22;7454;51.256;8.176;2023-04-29T08:41:08;10.20;81.40
14727;DHT22;7454;51.256;8.176;2023-04-29T08:43:34;10.20;81.50
14727;DHT22;7454;51.256;8.176;2023-04-29T08:46:04;10.20;81.40
14727;DHT22;7454;51.256;8.176;2023-04-29T08:48:31;10.20;81.60
14727;DHT22;7454;51.256;8.176;2023-04-29T08:50:56;10.20;81.90
14727;DHT22;7454;51.256;8.176;2023-04-29T08:53:26;10.20;81.30
14727;DHT22;7454;51.256;8.176;2023-04-29T08:55:52;10.20;81.20
14727;DHT22;7454;51.256;8.176;2023-04-29T08:58:19;10.20;81.50
14727;DHT22;7454;51.256;8.176;2023-04-29T09:00:45;10.10;81.30
14727;DHT22;7454;51.256;8.176;2023-04-29T09:03:25;10.20;81.50
14727;DHT22;7454;51.256;8.176;2023-04-29T09:05:54;10.20;81.50
14727;DHT22;7454;51.256;8.176;2023-04-29T09:08:21;10.20;81.40
14727;DHT22;7454;51.256;8.176;2023-04-29T09:10:48;10.20;81.20
14727;DHT22;7454;51.256;8.176;2023-04-29T09:13:25;10.10;81.40
14727;DHT22;7454;51.256;8.176;2023-04-29T09:15:51;10.20;81.20
14727;DHT22;7454;51.256;8.176;2023-04-29T09:21:16;10.10;81.10
14727;DHT22;7454;51.256;8.176;2023-04-29T09:23:43;10.10;81.40
14727;DHT22;7454;51.256;8.176;2023-04-29T09:26:10;10.10;81.20
14727;DHT22;7454;51.256;8.176;2023-04-29T09:28:35;10.10;81.70
14727;DHT22;7454;51.256;8.176;2023-04-29T09:31:01;10.10;81.40
14727;DHT22;7454;51.256;8.176;2023-04-29T09:39:18;10.20;81.60
14727;DHT22;7454;51.256;8.176;2023-04-29T09:44:18;10.20;81.70
14727;DHT22;7454;51.256;8.176;2023-04-29T09:46:55;10.10;81.80
14727;DHT22;7454;51.256;8.176;2023-04-29T09:49:23;10.20;81.40
14727;DHT22;7454;51.256;8.176;2023-04-29T09:51:53;10.20;81.70
14727;DHT22;7454;51.256;8.176;2023-04-29T09:54:20;10.20;81.60
14727;DHT22;7454;51.256;8.176;2023-04-29T09:56:47;10.20;81.40
14727;DHT22;7454;51.256;8.176;2023-04-29T09:59:14;10.20;81.60
14727;DHT22;7454;51.256;8.176;2023-04-29T10:01:40;10.10;81.60
14727;DHT22;7454;51.256;8.176;2023-04-29T10:04:06;10.10;81.30
14727;DHT22;7454;51.256;8.176;2023-04-29T10:06:33;10.20;81.30
14727;DHT22;7454;51.256;8.176;2023-04-29T10:08:58;10.10;81.30
14727;DHT22;7454;51.256;8.176;2023-04-29T10:11:24;10.10;81.50
14727;DHT22;7454;51.256;8.176;2023-04-29T10:13:51;10.20;81.50
14727;DHT22;7454;51.256;8.176;2023-04-29T10:16:30;10.10;81.30
14727;DHT22;7454;51.256;8.176;2023-04-29T10:18:59;10.10;81.50
14727;DHT22;7454;51.256;8.176;2023-04-29T10:21:28;10.10;81.10
14727;DHT22;7454;51.256;8.176;2023-04-29T10:23:58;10.10;81.10
14727;DHT22;7454;51.256;8.176;2023-04-29T10:26:25;10.10;81.60
14727;DHT22;7454;51.256;8.176;2023-04-29T10:28:54;10.10;81.30
14727;DHT22;7454;51.256;8.176;2023-04-29T10:31:20;10.00;81.30
14727;DHT22;7454;51.256;8.176;2023-04-29T10:33:47;10.00;81.50
14727;DHT22;7454;51.256;8.176;2023-04-29T10:36:14;10.10;81.80
14727;DHT22;7454;51.256;8.176;2023-04-29T10:38:40;10.10;81.70
14727;DHT22;7454;51.256;8.176;2023-04-29T10:41:18;10.10;81.60
14727;DHT22;7454;51.256;8.176;2023-04-29T10:43:45;10.10;81.70
14727;DHT22;7454;51.256;8.176;2023-04-29T10:48:44;10.10;81.90
14727;DHT22;7454;51.256;8.176;2023-04-29T10:51:26;10.10;81.80
14727;DHT22;7454;51.256;8.176;2023-04-29T10:53:58;10.10;81.70
14727;DHT22;7454;51.256;8.176;2023-04-29T10:56:38;10.10;81.90
14727;DHT22;7454;51.256;8.176;2023-04-29T10:59:59;10.20;82.30
14727;DHT22;7454;51.256;8.176;2023-04-29T11:02:09;10.20;81.80
14727;DHT22;7454;51.256;8.176;2023-04-29T11:04:42;10.40;81.60
14727;DHT22;7454;51.256;8.176;2023-04-29T11:07:36;10.40;81.50
14727;DHT22;7454;51.256;8.176;2023-04-29T11:10:02;10.50;81.70
14727;DHT22;7454;51.256;8.176;2023-04-29T11:12:28;10.60;81.30
14727;DHT22;7454;51.256;8.176;2023-04-29T11:14:53;10.60;81.30
14727;DHT22;7454;51.256;8.176;2023-04-29T11:17:27;10.70;81.30
14727;DHT22;7454;51.256;8.176;2023-04-29T11:20:01;10.80;81.00
14727;DHT22;7454;51.256;8.176;2023-04-29T11:22:29;10.80;81.10
14727;DHT22;7454;51.256;8.176;2023-04-29T11:25:02;10.80;80.80
14727;DHT22;7454;51.256;8.176;2023-04-29T11:30:00;10.70;80.80
14727;DHT22;7454;51.256;8.176;2023-04-29T11:32:32;10.70;80.70
14727;DHT22;7454;51.256;8.176;2023-04-29T11:37:33;10.70;80.60
14727;DHT22;7454;51.256;8.176;2023-04-29T11:39:59;10.60;80.70
14727;DHT22;7454;51.256;8.176;2023-04-29T11:42:28;10.60;80.80
14727;DHT22;7454;51.256;8.176;2023-04-29T11:44:54;10.60;80.70
14727;DHT22;7454;51.256;8.176;2023-04-29T11:47:24;10.70;80.60
14727;DHT22;7454;51.256;8.176;2023-04-29T11:50:00;10.60;80.60
14727;DHT22;7454;51.256;8.176;2023-04-29T11:52:27;10.60;80.50
14727;DHT22;7454;51.256;8.176;2023-04-29T11:54:53;10.60;80.60
14727;DHT22;7454;51.256;8.176;2023-04-29T11:57:18;10.60;80.60
14727;DHT22;7454;51.256;8.176;2023-04-29T11:59:45;10.60;80.70
14727;DHT22;7454;51.256;8.176;2023-04-29T12:02:11;10.70;80.70
14727;DHT22;7454;51.256;8.176;2023-04-29T12:04:47;10.80;80.90
14727;DHT22;7454;51.256;8.176;2023-04-29T12:07:15;10.80;80.80
14727;DHT22;7454;51.256;8.176;2023-04-29T12:09:42;10.90;80.80
14727;DHT22;7454;51.256;8.176;2023-04-29T12:12:09;11.00;81.00
14727;DHT22;7454;51.256;8.176;2023-04-29T12:14:35;11.10;80.70
14727;DHT22;7454;51.256;8.176;2023-04-29T12:17:01;11.20;80.60
14727;DHT22;7454;51.256;8.176;2023-04-29T12:19:27;11.20;80.60
14727;DHT22;7454;51.256;8.176;2023-04-29T12:21:52;11.20;80.60
14727;DHT22;7454;51.256;8.176;2023-04-29T12:24:19;11.20;80.50
14727;DHT22;7454;51.256;8.176;2023-04-29T12:26:45;11.20;80.30
14727;DHT22;7454;51.256;8.176;2023-04-29T12:29:11;11.20;80.40
14727;DHT22;7454;51.256;8.176;2023-04-29T12:31:37;11.20;80.20
14727;DHT22;7454;51.256;8.176;2023-04-29T12:34:03;11.20;80.30
14727;DHT22;7454;51.256;8.176;2023-04-29T12:36:29;11.10;80.40
14727;DHT22;7454;51.256;8.176;2023-04-29T12:38:55;11.20;80.40
14727;DHT22;7454;51.256;8.176;2023-04-29T12:41:36;11.10;80.20
14727;DHT22;7454;51.256;8.176;2023-04-29T12:44:03;11.10;80.40
14727;DHT22;7454;51.256;8.176;2023-04-29T12:46:32;11.10;80.30
14727;DHT22;7454;51.256;8.176;2023-04-29T12:49:01;11.10;80.70
14727;DHT22;7454;51.256;8.176;2023-04-29T12:51:27;11.10;80.50
14727;DHT22;7454;51.256;8.176;2023-04-29T12:53:52;11.20;80.60
14727;DHT22;7454;51.256;8.176;2023-04-29T12:56:18;11.30;80.50
14727;DHT22;7454;51.256;8.176;2023-04-29T12:58:44;11.40;80.40
14727;DHT22;7454;51.256;8.176;2023-04-29T13:01:09;11.40;80.30
14727;DHT22;7454;51.256;8.176;2023-04-29T13:03:36;11.50;80.60
14727;DHT22;7454;51.256;8.176;2023-04-29T13:06:01;11.50;80.40
14727;DHT22;7454;51.256;8.176;2023-04-29T13:08:27;11.60;80.20
14727;DHT22;7454;51.256;8.176;2023-04-29T13:10:53;11.60;80.10
14727;DHT22;7454;51.256;8.176;2023-04-29T13:13:18;11.60;79.90
14727;DHT22;7454;51.256;8.176;2023-04-29T13:15:44;11.60;80.00
14727;DHT22;7454;51.256;8.176;2023-04-29T13:18:09;11.70;80.30
14727;DHT22;7454;51.256;8.176;2023-04-29T13:20:35;11.70;80.30
14727;DHT22;7454;51.256;8.176;2023-04-29T13:23:01;11.70;80.10
14727;DHT22;7454;51.256;8.176;2023-04-29T13:25:26;11.80;80.20
14727;DHT22;7454;51.256;8.176;2023-04-29T13:27:52;11.80;80.00
14727;DHT22;7454;51.256;8.176;2023-04-29T13:30:18;11.80;80.20
14727;DHT22;7454;51.256;8.176;2023-04-29T13:32:43;11.80;80.00
14727;DHT22;7454;51.256;8.176;2023-04-29T13:35:09;11.80;80.00
14727;DHT22;7454;51.256;8.176;2023-04-29T13:37:35;11.80;80.20
14727;DHT22;7454;51.256;8.176;2023-04-29T13:40:00;11.80;80.00
14727;DHT22;7454;51.256;8.176;2023-04-29T13:42:26;11.90;80.20
14727;DHT22;7454;51.256;8.176;2023-04-29T13:44:52;11.80;80.00
14727;DHT22;7454;51.256;8.176;2023-04-29T13:47:19;11.80;80.20
14727;DHT22;7454;51.256;8.176;2023-04-29T13:49:46;11.70;80.00
14727;DHT22;7454;51.256;8.176;2023-04-29T13:52:12;11.60;79.90
14727;DHT22;7454;51.256;8.176;2023-04-29T13:54:37;11.80;80.10
14727;DHT22;7454;51.256;8.176;2023-04-29T13:57:03;11.70;79.90
14727;DHT22;7454;51.256;8.176;2023-04-29T13:59:33;11.70;79.90
14727;DHT22;7454;51.256;8.176;2023-04-29T14:02:00;11.70;80.10
14727;DHT22;7454;51.256;8.176;2023-04-29T14:04:27;11.70;80.20
14727;DHT22;7454;51.256;8.176;2023-04-29T14:06:53;11.70;80.20
14727;DHT22;7454;51.256;8.176;2023-04-29T14:09:20;11.70;79.90
14727;DHT22;7454;51.256;8.176;2023-04-29T14:11:46;11.60;79.70
14727;DHT22;7454;51.256;8.176;2023-04-29T14:14:12;11.60;79.80
14727;DHT22;7454;51.256;8.176;2023-04-29T14:16:38;11.60;79.80
14727;DHT22;7454;51.256;8.176;2023-04-29T14:19:05;11.70;79.90
14727;DHT22;7454;51.256;8.176;2023-04-29T14:21:30;11.70;79.90
14727;DHT22;7454;51.256;8.176;2023-04-29T14:23:57;11.70;80.00
14727;DHT22;7454;51.256;8.176;2023-04-29T14:26:24;11.70;80.10
14727;DHT22;7454;51.256;8.176;2023-04-29T14:28:52;11.80;79.90
14727;DHT22;7454;51.256;8.176;2023-04-29T14:31:24;11.80;80.10
14727;DHT22;7454;51.256;8.176;2023-04-29T14:33:52;11.90;79.80
14727;DHT22;7454;51.256;8.176;2023-04-29T14:36:18;12.00;80.00
14727;DHT22;7454;51.256;8.176;2023-04-29T14:38:44;11.90;79.70
14727;DHT22;7454;51.256;8.176;2023-04-29T14:41:10;12.00;79.90
14727;DHT22;7454;51.256;8.176;2023-04-29T14:43:35;12.00;79.60
14727;DHT22;7454;51.256;8.176;2023-04-29T14:46:01;12.10;79.60
14727;DHT22;7454;51.256;8.176;2023-04-29T14:48:26;12.10;79.60
14727;DHT22;7454;51.256;8.176;2023-04-29T14:50:53;12.10;79.70
14727;DHT22;7454;51.256;8.176;2023-04-29T14:53:19;12.00;79.40
14727;DHT22;7454;51.256;8.176;2023-04-29T14:55:46;12.00;79.40
14727;DHT22;7454;51.256;8.176;2023-04-29T14:58:11;11.80;79.30
14727;DHT22;7454;51.256;8.176;2023-04-29T15:00:37;11.90;79.50
14727;DHT22;7454;51.256;8.176;2023-04-29T15:03:03;11.90;79.50
14727;DHT22;7454;51.256;8.176;2023-04-29T15:05:29;11.80;79.50
14727;DHT22;7454;51.256;8.176;2023-04-29T15:07:55;11.80;79.40
14727;DHT22;7454;51.256;8.176;2023-04-29T15:10:22;11.80;79.60
14727;DHT22;7454;51.256;8.176;2023-04-29T15:12:48;11.80;79.80
14727;DHT22;7454;51.256;8.176;2023-04-29T15:15:15;11.90;79.70
14727;DHT22;7454;51.256;8.176;2023-04-29T15:17:41;11.90;79.80
14727;DHT22;7454;51.256;8.176;2023-04-29T15:20:06;11.90;79.90
14727;DHT22;7454;51.256;8.176;2023-04-29T15:22:33;11.90;79.50
14727;DHT22;7454;51.256;8.176;2023-04-29T15:24:59;11.90;79.40
14727;DHT22;7454;51.256;8.176;2023-04-29T15:27:25;11.90;79.50
14727;DHT22;7454;51.256;8.176;2023-04-29T15:29:51;11.90;79.50
14727;DHT22;7454;51.256;8.176;2023-04-29T15:32:18;11.90;79.50
14727;DHT22;7454;51.256;8.176;2023-04-29T15:34:44;11.90;79.50
14727;DHT22;7454;51.256;8.176;2023-04-29T15:37:10;11.90;79.60
14727;DHT22;7454;51.256;8.176;2023-04-29T15:39:35;11.90;79.40
14727;DHT22;7454;51.256;8.176;2023-04-29T15:42:01;12.00;79.70
14727;DHT22;7454;51.256;8.176;2023-04-29T15:44:27;12.00;79.60
14727;DHT22;7454;51.256;8.176;2023-04-29T15:46:53;12.00;79.50
14727;DHT22;7454;51.256;8.176;2023-04-29T15:49:19;11.90;79.60
14727;DHT22;7454;51.256;8.176;2023-04-29T15:51:45;12.00;79.60
14727;DHT22;7454;51.256;8.176;2023-04-29T15:54:10;12.00;79.70
14727;DHT22;7454;51.256;8.176;2023-04-29T15:56:36;12.00;79.70
14727;DHT22;7454;51.256;8.176;2023-04-29T15:59:02;11.90;79.80
14727;DHT22;7454;51.256;8.176;2023-04-29T16:01:27;11.90;79.90
14727;DHT22;7454;51.256;8.176;2023-04-29T16:03:53;12.00;79.70
14727;DHT22;7454;51.256;8.176;2023-04-29T16:06:18;11.80;79.60
14727;DHT22;7454;51.256;8.176;2023-04-29T16:08:44;11.80;79.50
14727;DHT22;7454;51.256;8.176;2023-04-29T16:11:10;11.80;79.70
14727;DHT22;7454;51.256;8.176;2023-04-29T16:13:36;11.80;79.90
14727;DHT22;7454;51.256;8.176;2023-04-29T16:16:02;11.80;80.10
14727;DHT22;7454;51.256;8.176;2023-04-29T16:18:27;11.70;80.10
14727;DHT22;7454;51.256;8.176;2023-04-29T16:20:53;11.70;80.00
14727;DHT22;7454;51.256;8.176;2023-04-29T16:23:19;11.80;80.00
14727;DHT22;7454;51.256;8.176;2023-04-29T16:25:44;11.70;80.10